Time;durP1;ratioP1;P1;durP2;ratioP2;P2;SDS_P1;SDS_P2;PMS_P1;PMS_P2;Temp;Humidity;BMP_temperature;BMP_pressure;BME280_temperature;BME280_humidity;BME280_pressure;Samples;Min_cycle;Max_cycle;Signal;HPM_P1;HPM_P2
2022/07/18 00:02:14;;;;;;;4.10;2.20;;;25.20;35.20;;;25.54;26.77;99366.59;4964558;28;123279;-80
2022/07/18 00:04:41;;;;;;;2.50;1.97;;;25.20;35.10;;;25.49;26.78;99370.63;4933210;28;115322;-81
2022/07/18 00:07:10;;;;;;;3.23;1.90;;;25.10;35.00;;;25.46;26.72;99364.97;4949187;28;114462;-80
2022/07/18 00:09:40;;;;;;;2.87;1.83;;;25.10;35.30;;;25.43;26.92;99366.56;4950026;28;123402;-81
2022/07/18 00:12:09;;;;;;;2.20;1.70;;;25.10;35.40;;;25.38;27.00;99366.94;4944317;28;123910;-80
2022/07/18 00:14:37;;;;;;;2.60;2.00;;;25.00;35.40;;;25.34;27.25;99366.94;4965169;28;114267;-80
2022/07/18 00:17:05;;;;;;;3.00;1.83;;;25.00;35.70;;;25.30;27.17;99359.63;4967540;28;113851;-80
2022/07/18 00:19:32;;;;;;;2.23;1.87;;;24.90;35.70;;;25.28;27.11;99364.88;4973802;28;123954;-81
2022/07/18 00:21:58;;;;;;;1.90;1.70;;;24.90;35.70;;;25.23;27.28;99373.78;4976202;28;123717;-81
2022/07/18 00:24:25;;;;;;;1.93;1.50;;;24.90;35.80;;;25.18;27.34;99365.66;4988357;28;114080;-80
2022/07/18 00:26:51;;;;;;;2.40;1.53;;;24.80;35.90;;;25.14;27.30;99374.91;4984250;28;113777;-81
2022/07/18 00:29:18;;;;;;;3.17;1.90;;;24.80;36.10;;;25.11;27.47;99369.22;4970697;28;122969;-81
2022/07/18 00:31:45;;;;;;;2.43;1.60;;;24.70;36.10;;;25.08;27.73;99373.66;4988708;28;124180;-81
2022/07/18 00:34:11;;;;;;;3.33;1.77;;;24.70;36.20;;;25.05;27.67;99380.13;4984778;28;114848;-80
2022/07/18 00:36:38;;;;;;;3.03;1.80;;;24.70;36.30;;;25.00;27.81;99366.34;4982516;28;113445;-80
2022/07/18 00:39:04;;;;;;;3.00;2.00;;;24.60;36.40;;;24.98;27.92;99373.59;4975154;28;124248;-81
2022/07/18 00:41:31;;;;;;;1.97;1.50;;;24.60;36.60;;;24.94;28.22;99367.13;4979902;28;124052;-81
2022/07/18 00:43:57;;;;;;;3.60;1.90;;;24.60;36.70;;;24.90;28.19;99367.94;4970886;28;114080;-81
2022/07/18 00:46:28;;;;;;;2.93;1.90;;;24.50;36.90;;;24.86;28.34;99358.59;4988266;28;114124;-81
2022/07/18 00:48:55;;;;;;;2.60;1.87;;;24.50;37.10;;;24.84;28.22;99360.22;4985935;28;123904;-80
2022/07/18 00:51:22;;;;;;;3.07;1.97;;;24.50;37.20;;;24.82;28.52;99360.59;4979328;28;123734;-81
2022/07/18 00:53:50;;;;;;;2.97;2.10;;;24.40;37.30;;;24.80;28.64;99356.56;4974437;28;114436;-81
2022/07/18 00:56:21;;;;;;;3.43;1.80;;;24.40;37.50;;;24.79;28.67;99357.75;4985730;28;115344;-81
2022/07/18 00:58:48;;;;;;;2.87;1.67;;;24.40;37.60;;;24.78;28.75;99368.25;4970748;28;124170;-81
2022/07/18 01:04:00;;;;;;;3.40;2.20;;;24.30;37.70;;;24.73;28.95;99370.66;4986913;28;115165;-81
2022/07/18 01:06:26;;;;;;;2.97;1.93;;;24.30;37.80;;;24.68;28.80;99361.31;4986310;28;114007;-81
2022/07/18 01:08:53;;;;;;;3.00;2.00;;;24.30;37.80;;;24.67;29.14;99365.38;4985801;28;124246;-81
2022/07/18 01:11:21;;;;;;;4.03;2.30;;;24.30;37.90;;;24.64;28.98;99366.16;4985809;28;123776;-80
2022/07/18 01:13:48;;;;;;;7.60;2.00;;;24.20;38.00;;;24.60;29.21;99359.66;4982236;28;114278;-81
2022/07/18 01:16:17;;;;;;;3.57;1.90;;;24.20;38.10;;;24.58;29.03;99364.06;4980891;28;114665;-81
2022/07/18 01:18:46;;;;;;;2.73;1.63;;;24.20;38.20;;;24.56;29.13;99360.84;4985686;28;124682;-81
2022/07/18 01:21:13;;;;;;;3.10;2.00;;;24.20;38.30;;;24.52;29.21;99369.28;4986822;28;124825;-81
2022/07/18 01:23:40;;;;;;;2.30;1.70;;;24.10;38.30;;;24.50;29.43;99370.88;4984825;28;114057;-81
2022/07/18 01:26:07;;;;;;;3.70;1.87;;;24.10;38.30;;;24.47;29.16;99364.00;4981932;28;113243;-81
2022/07/18 01:28:34;;;;;;;1.63;1.40;;;24.00;38.20;;;24.45;29.20;99366.44;4978494;28;123992;-81
2022/07/18 01:31:00;;;;;;;4.13;1.80;;;24.00;38.20;;;24.42;29.07;99355.84;4983457;28;124213;-81
2022/07/18 01:33:26;;;;;;;2.30;1.90;;;24.00;38.10;;;24.40;28.93;99358.28;4992455;28;114220;-81
2022/07/18 01:35:53;;;;;;;3.40;1.87;;;24.00;37.90;;;24.37;28.78;99361.91;4990380;28;114078;-81
2022/07/18 01:38:19;;;;;;;3.37;1.57;;;23.90;37.80;;;24.34;28.59;99366.31;4986814;28;123445;-81
2022/07/18 01:40:46;;;;;;;2.97;1.73;;;23.90;37.70;;;24.31;28.73;99357.78;4986618;28;124181;-81
2022/07/18 01:43:12;;;;;;;4.10;1.73;;;23.90;37.60;;;24.28;28.67;99364.22;4978531;28;116912;-81
2022/07/18 01:45:39;;;;;;;2.53;1.90;;;23.90;37.50;;;24.23;28.77;99354.09;4986939;28;114927;-81
2022/07/18 01:48:05;;;;;;;4.27;1.67;;;23.80;37.50;;;24.19;28.75;99359.72;4980207;28;124108;-81
2022/07/18 01:50:32;;;;;;;1.70;1.40;;;23.80;37.60;;;24.17;28.74;99362.13;4987890;28;124353;-81
2022/07/18 01:52:58;;;;;;;6.23;1.80;;;23.70;37.60;;;24.16;28.82;99356.88;4983368;28;114244;-81
2022/07/18 01:55:25;;;;;;;1.73;1.60;;;23.70;37.70;;;24.13;29.07;99358.47;4992028;28;112862;-81
2022/07/18 01:57:51;;;;;;;3.43;2.20;;;23.70;37.80;;;24.10;29.00;99358.44;5006496;28;123558;-81
2022/07/18 02:00:18;;;;;;;3.63;1.90;;;23.70;37.90;;;24.06;29.21;99352.75;4988546;28;122818;-81
2022/07/18 02:02:44;;;;;;;4.40;1.80;;;23.70;38.10;;;24.04;29.17;99366.44;4989044;28;114348;-81
2022/07/18 02:05:11;;;;;;;2.60;1.93;;;23.60;38.90;;;23.99;29.45;99359.16;4989174;28;114065;-81
2022/07/18 02:07:40;;;;;;;3.97;1.80;;;23.60;38.40;;;23.95;29.41;99357.50;4997510;28;124161;-81
2022/07/18 02:10:10;;;;;;;2.03;1.60;;;23.60;38.70;;;23.92;29.70;99364.72;4991171;28;123878;-81
2022/07/18 02:12:38;;;;;;;3.93;1.90;;;23.50;38.80;;;23.91;29.98;99367.94;4978807;28;114311;-81
2022/07/18 02:15:07;;;;;;;4.50;1.90;;;23.50;39.10;;;23.89;30.23;99367.53;4988307;28;113883;-81
2022/07/18 02:17:34;;;;;;;3.50;2.03;;;23.40;39.30;;;23.85;30.22;99370.31;4973620;28;123049;-81
2022/07/18 02:20:00;;;;;;;3.17;2.10;;;23.50;39.40;;;23.81;30.28;99369.47;4979750;28;124207;-82
2022/07/18 02:22:27;;;;;;;4.10;1.87;;;23.40;39.50;;;23.78;30.39;99364.59;4975022;28;114430;-81
2022/07/18 02:24:54;;;;;;;2.93;1.90;;;23.40;39.70;;;23.74;30.39;99370.19;4977963;28;114061;-81
2022/07/18 02:27:20;;;;;;;4.87;1.97;;;23.30;39.70;;;23.70;30.44;99368.53;4982241;28;123995;-81
2022/07/18 02:29:47;;;;;;;2.93;2.10;;;23.30;39.80;;;23.65;30.72;99366.03;4987836;28;124142;-81
2022/07/18 02:32:14;;;;;;;3.07;2.03;;;23.20;39.90;;;23.57;30.77;99373.63;4986887;28;115177;-81
2022/07/18 02:34:41;;;;;;;4.10;2.17;;;23.10;40.00;;;23.51;30.96;99375.16;4986595;28;114856;-82
2022/07/18 02:37:07;;;;;;;2.83;2.00;;;23.10;40.10;;;23.44;31.28;99375.88;4973879;28;123470;-81
2022/07/18 02:39:34;;;;;;;4.63;1.93;;;23.00;40.30;;;23.43;31.03;99384.72;4986247;28;123499;-79
2022/07/18 02:42:01;;;;;;;5.60;3.00;;;23.00;40.50;;;23.38;31.33;99369.78;4989249;28;113938;-81
2022/07/18 02:44:27;;;;;;;2.93;1.93;;;23.00;40.80;;;23.35;31.48;99387.47;4987384;28;114666;-82
2022/07/18 02:46:54;;;;;;;2.90;1.90;;;22.90;40.70;;;23.33;31.75;99380.59;4984809;28;123738;-81
2022/07/18 02:49:26;;;;;;;2.90;1.93;;;22.90;41.00;;;23.29;31.77;99372.09;4988339;28;123841;-82
2022/07/18 02:51:58;;;;;;;5.47;2.53;;;22.90;41.20;;;23.27;31.86;99379.31;4976005;28;114560;-82
2022/07/18 02:54:26;;;;;;;3.30;1.90;;;22.90;41.40;;;23.24;32.16;99380.06;4978342;28;114052;-82
2022/07/18 02:56:53;;;;;;;2.30;1.87;;;22.80;41.50;;;23.20;31.84;99370.75;4981479;28;124984;-82
2022/07/18 02:59:20;;;;;;;8.63;2.93;;;22.80;41.70;;;23.18;32.32;99371.13;4980644;28;123860;-82
2022/07/18 03:01:48;;;;;;;9.00;2.30;;;22.80;41.90;;;23.17;32.19;99377.97;4985079;28;114158;-81
2022/07/18 03:04:17;;;;;;;2.90;2.00;;;22.80;42.00;;;23.15;32.53;99383.19;4990694;28;114045;-81
2022/07/18 03:06:43;;;;;;;2.93;2.20;;;22.70;42.20;;;23.14;32.61;99376.72;4979460;28;123942;-81
2022/07/18 03:09:10;;;;;;;2.07;1.80;;;22.70;42.30;;;23.14;32.86;99370.28;4986594;28;123615;-81
2022/07/18 03:11:37;;;;;;;3.03;2.20;;;22.70;42.50;;;23.13;32.59;99385.56;4987112;28;114315;-81
2022/07/18 03:14:03;;;;;;;5.30;2.23;;;22.70;42.60;;;23.11;32.42;99382.34;4984545;28;113912;-82
2022/07/18 03:16:30;;;;;;;7.00;2.23;;;22.60;42.30;;;23.08;32.33;99380.28;4987885;28;124096;-81
2022/07/18 03:18:57;;;;;;;2.53;1.80;;;22.60;42.10;;;23.06;32.34;99377.84;4982507;28;123918;-81
2022/07/18 03:21:24;;;;;;;3.33;2.00;;;22.60;42.10;;;23.05;32.61;99379.03;4991360;28;115365;-81
2022/07/18 03:23:50;;;;;;;2.77;2.07;;;22.60;42.20;;;23.05;32.39;99376.22;4979839;28;114983;-81
2022/07/18 03:26:17;;;;;;;3.47;1.50;;;22.60;42.20;;;23.04;32.10;99379.41;4977763;28;125346;-82
2022/07/18 03:28:43;;;;;;;4.47;1.87;;;22.60;42.10;;;23.03;32.04;99378.59;4981102;28;123910;-81
2022/07/18 03:31:11;;;;;;;2.80;1.77;;;22.50;41.80;;;23.01;32.12;99385.81;4976146;28;114391;-81
2022/07/18 03:33:38;;;;;;;4.50;1.83;;;22.50;41.60;;;22.98;31.86;99383.75;4975570;28;114426;-81
2022/07/18 03:36:05;;;;;;;2.83;1.70;;;22.50;41.30;;;22.94;31.60;99384.50;4986357;28;124045;-82
2022/07/18 03:38:32;;;;;;;2.53;1.90;;;22.50;41.10;;;22.90;31.50;99380.00;4986266;28;124334;-82
2022/07/18 03:40:58;;;;;;;4.23;1.83;;;22.50;41.10;;;22.88;31.38;99377.56;4991019;28;114274;-82
2022/07/18 03:43:25;;;;;;;3.90;1.70;;;22.40;40.90;;;22.87;31.32;99380.78;4986295;28;114058;-82
2022/07/18 03:45:51;;;;;;;6.70;1.70;;;22.40;40.90;;;22.83;31.51;99383.50;4974839;28;124058;-81
2022/07/18 03:48:18;;;;;;;4.90;1.93;;;22.40;41.00;;;22.78;32.05;99375.38;4983540;28;123810;-81
2022/07/18 03:50:44;;;;;;;2.30;1.70;;;22.30;41.20;;;22.75;32.31;99380.97;4986399;28;114724;-82
2022/07/18 03:53:11;;;;;;;3.33;2.17;;;22.30;41.60;;;22.68;32.53;99376.06;4986556;28;113353;-82
2022/07/18 03:55:37;;;;;;;4.00;2.30;;;22.20;41.90;;;22.62;32.80;99384.03;4986902;28;124150;-81
2022/07/18 03:58:04;;;;;;;2.90;2.07;;;22.20;42.60;;;22.53;33.40;99379.84;4983752;28;123875;-81
2022/07/18 04:00:30;;;;;;;5.27;1.80;;;22.10;43.10;;;22.44;33.90;99383.75;4987768;28;114363;-82
2022/07/18 04:02:57;;;;;;;3.63;1.97;;;22.00;43.70;;;22.39;34.04;99384.06;4974666;28;113959;-81
2022/07/18 04:05:23;;;;;;;2.70;2.07;;;21.90;43.90;;;22.38;34.61;99374.00;4982332;28;124576;-81
2022/07/18 04:07:50;;;;;;;6.57;2.20;;;21.90;44.40;;;22.37;34.53;99383.63;4985652;28;123736;-82
2022/07/18 04:10:17;;;;;;;3.37;2.40;;;21.90;44.90;;;22.39;34.81;99381.25;4989773;28;115214;-81
2022/07/18 04:12:55;;;;;;;2.60;1.90;;;21.80;45.00;;;22.45;34.90;99376.91;4970347;28;113955;-81
2022/07/18 04:15:24;;;;;;;4.73;2.43;;;21.90;45.30;;;22.43;34.68;99379.31;4976948;28;124093;-81
2022/07/18 04:17:51;;;;;;;3.30;2.27;;;21.90;45.30;;;22.39;34.82;99374.81;4982024;28;123690;-81
2022/07/18 04:20:20;;;;;;;2.43;2.20;;;21.80;45.50;;;22.31;35.51;99387.97;4986421;28;113983;-81
2022/07/18 04:22:56;;;;;;;3.63;2.10;;;21.80;45.90;;;22.25;35.48;99378.22;4986945;28;114495;-82
2022/07/18 04:25:25;;;;;;;5.03;2.40;;;21.70;46.10;;;22.19;35.74;99376.88;4982322;28;123080;-82
2022/07/18 04:27:53;;;;;;;4.40;2.43;;;21.70;46.40;;;22.13;36.18;99378.38;4981770;28;124251;-82
2022/07/18 04:30:23;;;;;;;4.50;2.13;;;21.60;47.00;;;22.06;36.55;99385.50;4967556;28;113730;-81
2022/07/18 04:32:51;;;;;;;9.50;2.17;;;21.50;47.10;;;22.02;36.31;99384.63;4976655;28;114420;-82
2022/07/18 04:35:18;;;;;;;3.97;2.37;;;21.50;47.20;;;22.01;36.48;99380.19;4986147;28;124084;-82
2022/07/18 04:37:44;;;;;;;4.47;2.73;;;21.40;47.20;;;22.03;36.66;99379.81;4985596;28;123199;-82
2022/07/18 04:40:11;;;;;;;2.93;2.10;;;21.50;47.60;;;22.04;36.92;99370.19;4986854;28;114408;-82
2022/07/18 04:42:38;;;;;;;5.47;2.67;;;21.50;47.60;;;22.06;36.90;99374.25;4985588;28;113794;-82
2022/07/18 04:45:06;;;;;;;4.33;2.30;;;21.50;47.50;;;22.10;36.74;99373.50;5000093;28;124204;-81
2022/07/18 04:47:32;;;;;;;4.10;2.43;;;21.60;47.60;;;22.12;36.69;99371.94;4986999;28;123167;-81
2022/07/18 04:49:59;;;;;;;4.17;2.50;;;21.60;47.60;;;22.13;36.91;99367.91;4987087;28;114339;-81
2022/07/18 04:52:25;;;;;;;3.83;2.40;;;21.60;47.60;;;22.15;36.48;99370.38;4984045;28;113901;-82
2022/07/18 04:54:52;;;;;;;2.83;2.30;;;21.60;47.30;;;22.19;36.08;99376.88;4979128;28;124130;-81
2022/07/18 04:57:18;;;;;;;14.00;3.50;;;21.60;47.10;;;22.24;35.43;99373.75;4986898;28;122812;-81
2022/07/18 04:59:46;;;;;;;9.30;2.80;;;21.70;46.60;;;22.29;34.89;99379.06;4980619;28;115184;-82
2022/07/18 05:02:12;;;;;;;4.33;2.17;;;21.70;45.90;;;22.33;34.41;99387.59;4985758;28;117059;-82
2022/07/18 05:04:40;;;;;;;4.07;1.60;;;21.70;45.20;;;22.36;33.96;99376.38;4975572;28;123964;-82
2022/07/18 05:07:07;;;;;;;3.10;1.73;;;21.70;44.70;;;22.39;33.79;99381.25;4985660;28;124391;-81
2022/07/18 05:09:33;;;;;;;11.20;3.23;;;21.80;44.50;;;22.43;34.12;99376.50;4989220;28;114042;-81
2022/07/18 05:12:00;;;;;;;6.30;2.90;;;21.80;44.50;;;22.47;34.07;99371.72;4987625;28;114229;-81
2022/07/18 05:14:27;;;;;;;2.80;2.10;;;21.90;44.50;;;22.49;33.72;99369.34;4990052;28;124221;-81
2022/07/18 05:16:53;;;;;;;4.73;2.07;;;21.90;44.30;;;22.53;33.61;99369.41;4989589;28;123126;-81
2022/07/18 05:19:20;;;;;;;4.37;2.00;;;21.90;44.20;;;22.57;33.66;99375.06;4988188;28;115592;-81
2022/07/18 05:21:46;;;;;;;7.13;2.10;;;21.90;44.10;;;22.64;33.29;99372.38;4988804;28;115359;-80
2022/07/18 05:24:13;;;;;;;3.73;2.03;;;22.00;44.10;;;22.70;33.13;99370.84;4990015;28;124273;-81
2022/07/18 05:26:40;;;;;;;3.60;2.30;;;22.10;44.00;;;22.77;33.33;99368.13;4986047;28;123678;-81
2022/07/18 05:29:06;;;;;;;3.07;1.90;;;22.10;43.90;;;22.84;33.15;99368.25;4987965;28;113496;-82
2022/07/18 05:31:33;;;;;;;2.00;1.77;;;22.20;43.90;;;22.90;33.00;99378.00;4987906;28;113781;-82
2022/07/18 05:33:59;;;;;;;5.10;2.30;;;22.20;43.70;;;22.98;33.43;99372.50;4986190;28;124276;-83
2022/07/18 05:36:26;;;;;;;6.83;2.30;;;22.30;43.90;;;23.05;32.81;99366.94;4981332;28;123930;-81
2022/07/18 05:38:52;;;;;;;4.97;2.33;;;22.40;43.90;;;23.11;33.05;99376.69;4989657;28;114224;-82
2022/07/18 05:41:19;;;;;;;4.10;2.03;;;22.40;43.60;;;23.17;33.21;99371.53;4989323;28;114003;-82
2022/07/18 05:43:45;;;;;;;3.37;2.40;;;22.50;43.70;;;23.25;33.09;99376.88;4986433;28;123982;-82
2022/07/18 05:46:12;;;;;;;3.93;2.03;;;22.60;43.90;;;23.33;32.80;99381.41;4986605;28;123346;-82
2022/07/18 05:48:39;;;;;;;5.63;2.03;;;22.60;43.80;;;23.42;33.15;99383.09;4992153;28;115623;-82
2022/07/18 05:51:07;;;;;;;5.13;2.40;;;22.70;44.00;;;23.49;33.18;99375.53;4987951;28;114969;-81
2022/07/18 05:53:33;;;;;;;5.27;2.30;;;22.80;44.20;;;23.54;33.14;99371.56;4988517;28;124111;-83
2022/07/18 05:56:00;;;;;;;7.23;2.60;;;22.80;44.40;;;23.59;33.15;99377.69;4991045;28;123860;-82
2022/07/18 05:58:26;;;;;;;6.83;2.37;;;22.90;44.50;;;23.65;33.44;99377.34;4990699;28;114487;-82
2022/07/18 06:00:53;;;;;;;5.10;2.30;;;23.00;44.60;;;23.70;33.35;99371.34;4969580;28;113324;-82
2022/07/18 06:03:20;;;;;;;5.57;2.70;;;23.00;44.60;;;23.75;33.48;99382.28;4979829;28;123879;-81
2022/07/18 06:05:46;;;;;;;3.37;2.27;;;23.00;44.70;;;23.80;33.72;99379.94;4981574;28;123889;-81
2022/07/18 06:08:13;;;;;;;7.23;2.40;;;23.10;44.90;;;23.87;33.66;99384.03;4987830;28;114432;-81
2022/07/18 06:10:40;;;;;;;8.63;2.63;;;23.20;45.10;;;23.91;33.64;99379.22;4989025;28;113854;-81
2022/07/18 06:13:06;;;;;;;5.30;2.50;;;23.20;45.10;;;23.95;34.09;99374.44;4987217;28;124042;-80
2022/07/18 06:15:33;;;;;;;9.03;3.33;;;23.20;45.10;;;24.05;33.85;99375.75;4985413;28;123872;-81
2022/07/18 06:17:59;;;;;;;5.67;2.33;;;23.30;45.30;;;24.14;33.68;99377.03;4984865;28;113966;-82
2022/07/18 06:20:26;;;;;;;6.20;2.87;;;23.40;45.30;;;24.23;33.61;99377.53;4973108;28;113523;-81
2022/07/18 06:22:53;;;;;;;6.03;2.60;;;23.50;45.40;;;24.33;33.45;99378.00;4981586;28;124662;-80
2022/07/18 06:25:19;;;;;;;2.90;2.20;;;23.60;45.50;;;24.41;33.52;99379.66;4987062;28;123908;-81
2022/07/18 06:27:46;;;;;;;5.03;2.70;;;23.60;45.30;;;24.46;33.54;99382.16;4986922;28;114032;-82
2022/07/18 06:30:12;;;;;;;4.03;2.30;;;23.70;45.30;;;24.51;33.43;99378.97;4987843;28;114551;-81
2022/07/18 06:32:40;;;;;;;8.23;2.60;;;23.70;45.20;;;24.57;33.33;99377.41;4986951;28;123985;-81
2022/07/18 06:35:08;;;;;;;8.13;2.80;;;23.80;45.30;;;24.62;33.33;99376.22;4982215;28;123857;-81
2022/07/18 06:37:34;;;;;;;6.60;2.97;;;23.90;45.40;;;24.66;33.43;99380.72;4989235;28;114960;-81
2022/07/18 06:40:01;;;;;;;12.80;3.70;;;23.90;45.40;;;24.69;33.35;99379.91;4986496;28;115217;-81
2022/07/18 06:42:28;;;;;;;5.90;3.17;;;23.90;45.40;;;24.73;33.29;99379.13;4986133;28;123921;-81
2022/07/18 06:44:54;;;;;;;3.83;2.60;;;24.00;45.40;;;24.76;33.25;99378.34;4986317;28;123885;-81
2022/07/18 06:47:20;;;;;;;7.27;2.60;;;24.00;45.40;;;24.80;33.50;99373.53;4977723;28;114413;-82
2022/07/18 06:49:47;;;;;;;5.70;2.60;;;24.00;45.40;;;24.87;33.45;99365.06;4987120;28;114315;-82
2022/07/18 06:52:15;;;;;;;5.40;2.57;;;24.10;45.50;;;24.92;33.41;99373.97;4986833;28;124577;-81
2022/07/18 06:54:42;;;;;;;5.93;3.30;;;24.20;45.50;;;25.00;33.22;99372.00;4987931;28;123398;-82
2022/07/18 06:57:09;;;;;;;7.37;2.97;;;24.20;45.40;;;25.09;33.36;99369.66;4988668;28;114227;-82
2022/07/18 06:59:36;;;;;;;6.57;2.90;;;24.30;45.40;;;25.13;32.94;99369.66;4985792;28;112139;-81
2022/07/18 07:02:03;;;;;;;7.83;3.20;;;24.40;45.10;;;25.14;32.73;99365.59;4969797;28;124203;-81
2022/07/18 07:04:30;;;;;;;4.53;2.33;;;24.30;44.90;;;25.18;32.52;99363.66;4988708;28;124052;-81
2022/07/18 07:06:57;;;;;;;4.97;3.10;;;24.40;44.80;;;25.25;32.68;99360.03;4988396;28;114364;-81
2022/07/18 07:09:24;;;;;;;4.70;2.97;;;24.50;44.90;;;25.32;32.66;99355.22;4988850;28;114566;-81
2022/07/18 07:11:50;;;;;;;5.30;2.90;;;24.50;44.90;;;25.38;32.35;99358.47;4988250;28;123472;-81
2022/07/18 07:14:17;;;;;;;8.47;3.37;;;24.60;44.70;;;25.45;32.47;99358.50;4980799;28;123692;-81
2022/07/18 07:16:43;;;;;;;6.47;2.83;;;24.70;44.80;;;25.52;32.56;99350.03;4987683;28;114503;-81
2022/07/18 07:19:10;;;;;;;4.80;2.70;;;24.70;44.70;;;25.62;32.49;99353.28;4990583;28;112980;-81
2022/07/18 07:21:36;;;;;;;3.80;2.60;;;24.80;44.80;;;25.73;32.30;99349.25;4988404;28;124646;-81
2022/07/18 07:24:03;;;;;;;4.80;2.87;;;24.90;44.90;;;25.83;32.49;99349.69;4988172;28;124221;-81
2022/07/18 07:26:30;;;;;;;7.17;2.83;;;25.00;45.00;;;25.93;32.53;99344.06;4991233;28;114662;-81
2022/07/18 07:28:56;;;;;;;4.20;2.43;;;25.10;45.00;;;26.04;32.67;99346.09;4983857;28;114927;-81
2022/07/18 07:31:23;;;;;;;5.50;2.63;;;25.20;45.10;;;26.09;32.39;99343.66;4988001;28;123852;-81
2022/07/18 07:33:49;;;;;;;5.80;2.93;;;25.30;45.10;;;26.13;32.37;99344.47;5006024;28;121884;-81
2022/07/18 07:36:16;;;;;;;6.30;2.60;;;25.30;45.10;;;26.20;32.28;99347.31;5007068;28;113365;-81
2022/07/18 07:38:42;;;;;;;6.70;3.23;;;25.40;45.10;;;26.30;32.16;99340.00;4987439;28;113982;-81
2022/07/18 07:41:09;;;;;;;6.57;3.00;;;25.50;45.00;;;26.40;32.35;99339.19;4989897;28;123763;-81
2022/07/18 07:43:38;;;;;;;9.70;3.17;;;25.60;44.90;;;26.50;32.32;99342.44;4983496;28;124232;-80
2022/07/18 07:46:05;;;;;;;8.87;2.73;;;25.70;44.80;;;26.60;31.86;99344.47;4988754;28;114326;-81
2022/07/18 07:48:32;;;;;;;9.60;3.20;;;25.80;44.60;;;26.69;31.93;99339.19;4991380;28;114250;-81
2022/07/18 07:50:58;;;;;;;9.20;3.20;;;25.80;44.40;;;26.78;31.75;99342.38;4988768;28;125348;-81
2022/07/18 07:53:25;;;;;;;9.13;2.93;;;26.00;44.40;;;26.85;31.82;99339.53;4988213;28;123816;-81
2022/07/18 07:55:51;;;;;;;3.70;2.90;;;26.00;44.20;;;26.91;31.54;99334.25;4988124;28;114213;-81
2022/07/18 07:58:18;;;;;;;10.93;3.67;;;26.10;44.10;;;26.95;31.31;99326.56;4986465;28;113948;-81
2022/07/18 08:00:44;;;;;;;5.70;2.80;;;26.10;43.60;;;27.01;31.25;99327.75;4990400;28;124081;-81
2022/07/18 08:03:11;;;;;;;4.37;2.50;;;26.20;43.40;;;27.10;30.89;99335.81;4979019;28;122910;-81
2022/07/18 08:05:44;;;;;;;4.03;2.40;;;26.30;43.30;;;27.20;30.48;99328.50;4985857;28;114207;-81
2022/07/18 08:08:11;;;;;;;8.57;2.97;;;26.40;43.00;;;27.27;30.46;99319.94;4988318;28;113148;-81
2022/07/18 08:10:37;;;;;;;9.70;3.10;;;26.50;42.80;;;27.33;30.33;99309.81;4987781;28;124678;-81
2022/07/18 08:13:04;;;;;;;6.20;3.00;;;26.50;42.80;;;27.40;30.20;99320.28;4986678;28;124511;-81
2022/07/18 08:15:31;;;;;;;10.20;3.13;;;26.60;42.80;;;27.46;30.30;99312.97;4986126;28;115399;-82
2022/07/18 08:17:57;;;;;;;4.80;2.77;;;26.60;42.40;;;27.49;30.34;99318.63;4990893;28;114966;-82
2022/07/18 08:20:24;;;;;;;7.07;2.97;;;26.70;42.30;;;27.52;30.17;99317.78;4988741;28;124280;-82
2022/07/18 08:23:05;;;;;;;7.23;3.27;;;26.80;42.20;;;27.53;29.69;99318.59;4987203;28;123842;-82
2022/07/18 08:25:36;;;;;;;6.17;2.43;;;26.80;42.10;;;27.52;29.92;99314.16;4986779;28;114084;-82
2022/07/18 08:28:05;;;;;;;5.50;2.60;;;26.80;42.00;;;27.56;29.72;99317.75;4986272;28;114388;-82
2022/07/18 08:30:33;;;;;;;6.80;3.03;;;26.80;42.00;;;27.64;29.68;99313.66;4983733;28;124125;-82
2022/07/18 08:33:03;;;;;;;15.63;2.87;;;26.90;41.90;;;27.71;29.75;99313.59;4985257;28;123842;-82
2022/07/18 08:35:34;;;;;;;6.93;3.03;;;27.00;41.70;;;27.77;29.76;99313.97;4986678;28;113360;-81
2022/07/18 08:38:02;;;;;;;8.60;2.93;;;27.10;41.80;;;27.82;29.62;99315.59;4987234;28;114305;-82
2022/07/18 08:40:29;;;;;;;8.47;3.60;;;27.10;41.40;;;27.83;29.33;99309.50;4985649;28;124397;-82
2022/07/18 08:42:58;;;;;;;6.83;2.80;;;27.10;41.10;;;27.85;29.37;99320.44;4992934;28;124118;-82
2022/07/18 08:45:25;;;;;;;15.97;3.90;;;27.10;40.80;;;27.87;29.15;99321.66;4990342;28;114399;-82
2022/07/18 08:47:53;;;;;;;5.80;2.90;;;27.10;40.90;;;27.90;28.87;99315.13;4990829;28;113998;-82
2022/07/18 08:50:19;;;;;;;8.10;2.80;;;27.20;40.50;;;27.91;28.23;99315.94;4989648;28;123973;-82
2022/07/18 08:52:46;;;;;;;6.10;3.10;;;27.20;40.10;;;27.93;28.51;99311.44;4993199;28;123741;-82
2022/07/18 08:55:14;;;;;;;5.70;2.40;;;27.30;40.20;;;27.97;28.38;99308.59;4991086;28;114670;-82
2022/07/18 08:57:41;;;;;;;6.10;2.83;;;27.30;40.10;;;28.00;28.22;99313.44;4993623;28;113840;-81
2022/07/18 09:00:10;;;;;;;5.77;3.00;;;27.30;40.00;;;28.05;28.07;99318.66;4991960;28;123271;-82
2022/07/18 09:02:37;;;;;;;6.00;2.83;;;27.40;39.60;;;28.10;27.92;99314.56;4985758;28;123785;-81
2022/07/18 09:05:05;;;;;;;2.90;2.17;;;27.50;39.50;;;28.19;28.25;99326.25;4982932;28;114496;-81
2022/07/18 09:07:37;;;;;;;4.57;2.40;;;27.50;39.40;;;28.28;27.74;99318.06;4994160;28;114942;-82
2022/07/18 09:10:06;;;;;;;2.83;2.37;;;27.60;39.20;;;28.33;27.61;99325.31;4988825;28;123953;-81
2022/07/18 09:12:32;;;;;;;5.43;2.43;;;27.60;38.90;;;28.39;27.01;99317.94;5008178;28;121915;-82
2022/07/18 09:15:13;;;;;;;2.73;2.10;;;27.70;38.50;;;28.44;27.32;99316.72;4992607;28;113985;-81
2022/07/18 09:17:40;;;;;;;3.23;2.20;;;27.80;38.20;;;28.50;27.08;99317.88;4983987;28;114256;-82
2022/07/18 09:20:14;;;;;;;4.10;2.60;;;27.80;38.00;;;28.57;26.88;99317.81;4990387;28;124062;-81
2022/07/18 09:22:49;;;;;;;2.50;1.90;;;27.90;37.90;;;28.60;26.34;99320.59;4993610;28;124691;-82
2022/07/18 09:25:21;;;;;;;2.97;2.10;;;27.90;37.00;;;28.64;26.00;99317.75;4989708;28;114323;-81
2022/07/18 09:27:51;;;;;;;4.03;1.97;;;28.00;36.80;;;28.68;25.91;99318.50;4991570;28;114444;-81
2022/07/18 09:30:28;;;;;;;4.07;2.67;;;28.10;36.60;;;28.73;25.63;99318.03;4994998;28;123977;-81
2022/07/18 09:33:06;;;;;;;3.83;2.40;;;28.10;36.30;;;28.75;25.36;99312.75;4992690;28;124023;-81
2022/07/18 09:35:45;;;;;;;4.17;2.63;;;28.20;36.00;;;28.81;25.23;99304.56;4989909;28;114213;-81
2022/07/18 09:38:18;;;;;;;4.33;2.30;;;28.20;35.40;;;28.87;24.79;99302.84;4993097;28;114123;-81
2022/07/18 09:40:48;;;;;;;4.80;1.70;;;28.20;35.10;;;28.94;24.41;99296.28;4993570;28;124858;-81
2022/07/18 09:43:18;;;;;;;2.53;2.03;;;28.30;34.60;;;29.00;24.12;99298.22;4989982;28;123895;-82
2022/07/18 09:45:49;;;;;;;3.47;1.90;;;28.40;34.10;;;29.04;24.03;99301.88;4989024;28;113387;-82
2022/07/18 09:48:20;;;;;;;3.90;2.00;;;28.50;33.90;;;29.11;24.16;99303.00;4982981;28;114335;-82
2022/07/18 09:50:55;;;;;;;3.70;1.90;;;28.50;33.80;;;29.18;24.06;99300.06;4989004;28;124337;-82
2022/07/18 09:53:30;;;;;;;4.00;2.03;;;28.60;33.80;;;29.24;23.40;99298.34;4989670;28;123837;-81
2022/07/18 09:56:06;;;;;;;3.53;2.00;;;28.60;33.10;;;29.30;23.11;99296.63;5012407;28;114304;-82
2022/07/18 09:58:39;;;;;;;4.40;2.20;;;28.70;32.70;;;29.36;23.12;99292.06;4995390;28;114372;-82
2022/07/18 10:01:10;;;;;;;4.10;2.40;;;28.80;32.60;;;29.42;23.13;99283.84;4956201;28;126320;-82
2022/07/18 10:03:39;;;;;;;3.60;1.70;;;28.80;32.50;;;29.48;22.96;99282.16;4939043;28;123830;-82
2022/07/18 10:06:05;;;;;;;3.10;2.10;;;28.80;32.20;;;29.54;22.54;99285.31;4950946;28;114322;-82
2022/07/18 10:08:33;;;;;;;3.77;2.10;;;28.90;31.80;;;29.59;22.61;99284.84;4949857;28;113969;-82
2022/07/18 10:11:03;;;;;;;3.07;2.00;;;29.00;31.70;;;29.62;22.53;99284.78;4948993;28;124267;-82
2022/07/18 10:13:31;;;;;;;4.93;1.93;;;29.00;31.40;;;29.68;22.58;99274.53;4950429;28;123755;-82
2022/07/18 10:15:58;;;;;;;3.27;1.90;;;29.10;31.20;;;29.75;22.12;99276.47;4949561;28;114640;-82
2022/07/18 10:18:28;;;;;;;3.10;1.80;;;29.10;31.00;;;29.80;22.31;99278.84;4950782;28;114068;-82